createdAt,value
2016-06-15T00:00:44.128Z,0
2016-06-15T00:01:44.100Z,0
2016-06-15T00:02:44.103Z,0
2016-06-15T00:03:44.059Z,0
2016-06-15T00:04:44.312Z,0
2016-06-15T00:05:44.034Z,0
2016-06-15T00:06:44.006Z,0
2016-06-15T00:07:43.978Z,0
2016-06-15T00:08:43.965Z,0
2016-06-15T00:09:43.937Z,0
2016-06-15T00:10:43.941Z,0
2016-06-15T00:11:43.912Z,0
2016-06-15T00:12:43.869Z,0
2016-06-15T00:13:43.855Z,0
2016-06-15T00:14:43.843Z,0
2016-06-15T00:15:43.800Z,0
2016-06-15T00:16:43.803Z,0
2016-06-15T00:17:43.790Z,0
2016-06-15T00:18:43.762Z,0
2016-06-15T00:19:43.968Z,0
2016-06-15T00:20:43.721Z,0
2016-06-15T00:21:43.694Z,0
2016-06-15T00:22:43.680Z,0
2016-06-15T00:23:43.653Z,0
2016-06-15T00:24:43.623Z,0
2016-06-15T00:25:43.627Z,0
2016-06-15T00:26:43.583Z,0
2016-06-15T00:27:43.555Z,0
2016-06-15T00:28:43.526Z,0
2016-06-15T00:29:43.514Z,0
2016-06-15T00:30:43.501Z,0
2016-06-15T00:31:43.474Z,0
2016-06-15T00:32:43.461Z,0
2016-06-15T00:33:43.433Z,0
2016-06-15T00:34:43.748Z,0
2016-06-15T00:35:43.392Z,0
2016-06-15T00:36:43.365Z,0
2016-06-15T00:37:43.351Z,0
2016-06-15T00:38:43.323Z,0
2016-06-15T00:39:43.311Z,0
2016-06-15T00:40:43.298Z,0
2016-06-15T00:41:43.254Z,0
2016-06-15T00:42:43.242Z,0
2016-06-15T00:43:43.229Z,0
2016-06-15T00:44:43.201Z,0
2016-06-15T00:45:43.173Z,0
2016-06-15T00:46:43.160Z,0
2016-06-15T00:47:43.148Z,0
2016-06-15T00:48:43.119Z,0
2016-06-15T00:49:43.638Z,0
2016-06-15T00:50:43.094Z,0
2016-06-15T00:51:43.067Z,0
2016-06-15T00:52:43.038Z,0
2016-06-15T00:53:43.026Z,0
2016-06-15T00:54:42.998Z,0
2016-06-15T00:55:42.969Z,0
2016-06-15T00:56:42.941Z,0
2016-06-15T00:57:42.929Z,0
2016-06-15T00:58:42.775Z,0
2016-06-15T00:59:42.798Z,0
2016-06-15T01:00:42.963Z,0
2016-06-15T01:01:43.002Z,0
2016-06-15T01:02:42.854Z,0
2016-06-15T01:03:42.984Z,0
2016-06-15T01:04:42.844Z,0
2016-06-15T01:05:43.204Z,0
2016-06-15T01:06:42.954Z,0
2016-06-15T01:07:42.955Z,0
2016-06-15T01:08:42.792Z,0
2016-06-15T01:09:42.973Z,0
2016-06-15T01:10:42.761Z,0
2016-06-15T01:11:42.910Z,0
2016-06-15T01:12:42.871Z,0
2016-06-15T01:13:42.861Z,0
2016-06-15T01:14:42.849Z,0
2016-06-15T01:15:42.667Z,0
2016-06-15T01:16:42.812Z,0
2016-06-15T01:17:42.785Z,0
2016-06-15T01:18:42.759Z,0
2016-06-15T01:19:43.215Z,0
2016-06-15T01:20:42.594Z,0
2016-06-15T01:21:42.692Z,0
2016-06-15T01:22:42.696Z,0
2016-06-15T01:23:42.668Z,0
2016-06-15T01:24:42.639Z,0
2016-06-15T01:25:42.611Z,0
2016-06-15T01:26:42.583Z,0
2016-06-15T01:27:42.571Z,0
2016-06-15T01:28:42.558Z,0
2016-06-15T01:29:42.530Z,0
2016-06-15T01:30:42.517Z,0
2016-06-15T01:31:42.489Z,0
2016-06-15T01:32:42.476Z,0
2016-06-15T01:33:42.449Z,0
2016-06-15T01:34:42.419Z,0
2016-06-15T01:35:42.955Z,0
2016-06-15T01:36:42.238Z,0
2016-06-15T01:37:42.367Z,0
2016-06-15T01:38:42.339Z,0
2016-06-15T01:39:42.342Z,0
2016-06-15T01:40:42.298Z,0
2016-06-15T01:41:42.285Z,0
2016-06-15T01:42:42.272Z,0
2016-06-15T01:43:42.229Z,0
2016-06-15T01:44:42.217Z,0
2016-06-15T01:45:42.203Z,0
2016-06-15T01:46:42.175Z,0
2016-06-15T01:47:42.147Z,0
2016-06-15T01:48:42.135Z,0
2016-06-15T01:49:42.107Z,0
2016-06-15T01:50:42.110Z,0
2016-06-15T01:51:42.066Z,0
2016-06-15T01:52:42.069Z,0
2016-06-15T01:53:42.025Z,0
2016-06-15T01:54:42.013Z,0
2016-06-15T01:55:41.828Z,0
2016-06-15T01:56:41.956Z,0
2016-06-15T01:57:41.943Z,0
2016-06-15T01:58:41.931Z,0
2016-06-15T01:59:41.904Z,0
2016-06-15T02:00:41.891Z,0
2016-06-15T02:01:41.863Z,0
2016-06-15T02:02:41.834Z,0
2016-06-15T02:03:41.806Z,0
2016-06-15T02:04:41.809Z,0
2016-06-15T02:05:42.515Z,0
2016-06-15T02:06:41.753Z,0
2016-06-15T02:07:41.724Z,0
2016-06-15T02:08:41.712Z,0
2016-06-15T02:09:41.699Z,0
2016-06-15T02:10:41.671Z,0
2016-06-15T02:11:41.644Z,0
2016-06-15T02:12:41.615Z,0
2016-06-15T02:13:41.603Z,0
2016-06-15T02:14:41.606Z,0
2016-06-15T02:15:41.562Z,0
2016-06-15T02:16:41.549Z,0
2016-06-15T02:17:41.537Z,0
2016-06-15T02:18:41.493Z,0
2016-06-15T02:19:41.480Z,0
2016-06-15T02:20:41.999Z,0
2016-06-15T02:21:41.439Z,0
2016-06-15T02:22:41.428Z,0
2016-06-15T02:23:41.414Z,0
2016-06-15T02:24:41.387Z,0
2016-06-15T02:25:41.373Z,0
2016-06-15T02:26:41.329Z,0
2016-06-15T02:27:41.301Z,0
2016-06-15T02:28:41.289Z,0
2016-06-15T02:29:41.276Z,0
2016-06-15T02:30:41.249Z,0
2016-06-15T02:31:41.063Z,0
2016-06-15T02:32:41.192Z,0
2016-06-15T02:33:41.179Z,0
2016-06-15T02:34:41.151Z,0
2016-06-15T02:35:41.498Z,0
2016-06-15T02:36:41.126Z,0
2016-06-15T02:37:41.098Z,0
2016-06-15T02:38:41.085Z,0
2016-06-15T02:39:41.057Z,0
2016-06-15T02:40:41.029Z,0
2016-06-15T02:41:41.001Z,0
2016-06-15T02:42:40.988Z,0
2016-06-15T02:43:40.976Z,0
2016-06-15T02:44:40.948Z,0
2016-06-15T02:45:40.920Z,0
2016-06-15T02:46:40.907Z,0
2016-06-15T02:47:40.894Z,0
2016-06-15T02:48:40.850Z,0
2016-06-15T02:49:40.822Z,0
2016-06-15T02:50:40.529Z,0
2016-06-15T02:51:40.797Z,0
2016-06-15T02:52:40.770Z,0
2016-06-15T02:53:40.740Z,0
2016-06-15T02:54:40.729Z,0
2016-06-15T02:55:40.716Z,0
2016-06-15T02:56:40.688Z,0
2016-06-15T02:57:40.674Z,0
2016-06-15T02:58:40.663Z,0
2016-06-15T02:59:40.618Z,0
2016-06-15T03:00:40.606Z,0
2016-06-15T03:01:40.578Z,0
2016-06-15T03:02:40.566Z,0
2016-06-15T03:03:40.537Z,0
2016-06-15T03:04:40.524Z,0
2016-06-15T03:05:40.887Z,0
2016-06-15T03:06:40.328Z,0
2016-06-15T03:07:40.456Z,0
2016-06-15T03:08:40.428Z,5
2016-06-15T03:09:40.431Z,5
2016-06-15T03:10:40.402Z,5
2016-06-15T03:11:40.390Z,5
2016-06-15T03:12:40.362Z,5
2016-06-15T03:13:40.349Z,5
2016-06-15T03:14:40.305Z,5
2016-06-15T03:15:40.277Z,5
2016-06-15T03:16:40.265Z,5
2016-06-15T03:17:40.269Z,5
2016-06-15T03:18:40.224Z,10
2016-06-15T03:19:40.211Z,10
2016-06-15T03:20:40.198Z,10
2016-06-15T03:21:40.155Z,10
2016-06-15T03:22:40.142Z,10
2016-06-15T03:23:40.115Z,10
2016-06-15T03:24:40.085Z,10
2016-06-15T03:25:40.074Z,10
2016-06-15T03:26:40.046Z,15
2016-06-15T03:27:40.017Z,15
2016-06-15T03:28:40.020Z,15
2016-06-15T03:29:40.008Z,15
2016-06-15T03:30:39.808Z,15
2016-06-15T03:31:39.779Z,15
2016-06-15T03:32:39.923Z,20
2016-06-15T03:33:39.910Z,20
2016-06-15T03:34:39.867Z,20
2016-06-15T03:35:40.385Z,20
2016-06-15T03:36:39.842Z,20
2016-06-15T03:37:39.814Z,25
2016-06-15T03:38:39.786Z,25
2016-06-15T03:39:39.773Z,25
2016-06-15T03:40:39.745Z,25
2016-06-15T03:41:39.748Z,30
2016-06-15T03:42:39.704Z,30
2016-06-15T03:43:39.676Z,35
2016-06-15T03:44:39.663Z,35
2016-06-15T03:45:39.651Z,35
2016-06-15T03:46:39.607Z,40
2016-06-15T03:47:39.611Z,40
2016-06-15T03:48:39.425Z,45
2016-06-15T03:49:39.554Z,45
2016-06-15T03:50:39.228Z,45
2016-06-15T03:51:39.716Z,50
2016-06-15T03:52:39.343Z,50
2016-06-15T03:53:39.457Z,55
2016-06-15T03:54:39.459Z,55
2016-06-15T03:55:39.431Z,60
2016-06-15T03:56:39.419Z,60
2016-06-15T03:57:39.375Z,60
2016-06-15T03:58:39.363Z,60
2016-06-15T03:59:39.334Z,60
2016-06-15T04:00:39.150Z,60
2016-06-15T04:01:39.294Z,60
2016-06-15T04:02:39.265Z,60
2016-06-15T04:03:39.253Z,60
2016-06-15T04:04:39.240Z,60
2016-06-15T04:05:39.306Z,60
2016-06-15T04:06:39.215Z,60
2016-06-15T04:07:39.015Z,60
2016-06-15T04:08:39.143Z,65
2016-06-15T04:09:39.131Z,65
2016-06-15T04:10:39.087Z,70
2016-06-15T04:11:39.090Z,70
2016-06-15T04:12:39.046Z,65
2016-06-15T04:13:39.033Z,70
2016-06-15T04:14:39.021Z,70
2016-06-15T04:15:38.978Z,70
2016-06-15T04:16:38.980Z,75
2016-06-15T04:17:38.953Z,75
2016-06-15T04:18:38.924Z,80
2016-06-15T04:19:38.896Z,85
2016-06-15T04:20:39.555Z,90
2016-06-15T04:21:38.871Z,95
2016-06-15T04:22:38.843Z,95
2016-06-15T04:23:38.830Z,100
2016-06-15T04:24:38.787Z,110
2016-06-15T04:25:38.773Z,105
2016-06-15T04:26:38.746Z,105
2016-06-15T04:27:38.733Z,105
2016-06-15T04:28:38.705Z,110
2016-06-15T04:29:38.693Z,105
2016-06-15T04:30:38.680Z,105
2016-06-15T04:31:38.652Z,100
2016-06-15T04:32:38.624Z,100
2016-06-15T04:33:38.611Z,100
2016-06-15T04:34:38.614Z,95
2016-06-15T04:35:39.398Z,95
2016-06-15T04:36:38.620Z,90
2016-06-15T04:37:38.545Z,90
2016-06-15T04:38:38.501Z,85
2016-06-15T04:39:38.488Z,80
2016-06-15T04:40:38.461Z,75
2016-06-15T04:41:38.447Z,75
2016-06-15T04:42:38.435Z,75
2016-06-15T04:43:38.407Z,75
2016-06-15T04:44:38.363Z,80
2016-06-15T04:45:38.350Z,85
2016-06-15T04:46:38.354Z,95
2016-06-15T04:47:38.325Z,100
2016-06-15T04:48:38.298Z,115
2016-06-15T04:49:38.285Z,125
2016-06-15T04:50:38.257Z,135
2016-06-15T04:51:38.463Z,140
2016-06-15T04:52:38.216Z,155
2016-06-15T04:53:38.203Z,160
2016-06-15T04:54:38.175Z,160
2016-06-15T04:55:38.162Z,160
2016-06-15T04:56:38.134Z,160
2016-06-15T04:57:38.107Z,160
2016-06-15T04:58:38.078Z,155
2016-06-15T04:59:38.066Z,150
2016-06-15T05:00:38.052Z,145
2016-06-15T05:01:37.884Z,140
2016-06-15T05:02:38.012Z,135
2016-06-15T05:03:37.984Z,130
2016-06-15T05:04:37.956Z,125
2016-06-15T05:05:37.928Z,120
2016-06-15T05:06:38.009Z,120
2016-06-15T05:07:37.902Z,120
2016-06-15T05:08:37.891Z,125
2016-06-15T05:09:37.877Z,125
2016-06-15T05:10:37.850Z,140
2016-06-15T05:11:37.821Z,175
2016-06-15T05:12:37.793Z,160
2016-06-15T05:13:37.781Z,175
2016-06-15T05:14:37.753Z,190
2016-06-15T05:15:37.740Z,190
2016-06-15T05:16:37.712Z,195
2016-06-15T05:17:37.699Z,190
2016-06-15T05:18:37.671Z,190
2016-06-15T05:19:37.659Z,190
2016-06-15T05:20:37.474Z,215
2016-06-15T05:21:38.493Z,275
2016-06-15T05:22:37.636Z,300
2016-06-15T05:23:37.577Z,255
2016-06-15T05:24:37.564Z,220
2016-06-15T05:25:37.568Z,210
2016-06-15T05:26:37.367Z,210
2016-06-15T05:27:37.511Z,210
2016-06-15T05:28:37.467Z,210
2016-06-15T05:29:37.455Z,210
2016-06-15T05:30:37.442Z,215
2016-06-15T05:31:37.430Z,225
2016-06-15T05:32:37.401Z,230
2016-06-15T05:33:37.232Z,235
2016-06-15T05:34:37.360Z,235
2016-06-15T05:35:37.333Z,235
2016-06-15T05:36:37.695Z,235
2016-06-15T05:37:37.307Z,250
2016-06-15T05:38:37.279Z,255
2016-06-15T05:39:37.266Z,275
2016-06-15T05:40:37.238Z,280
2016-06-15T05:41:37.226Z,285
2016-06-15T05:42:37.214Z,290
2016-06-15T05:43:37.200Z,290
2016-06-15T05:44:37.188Z,295
2016-06-15T05:45:37.144Z,300
2016-06-15T05:46:37.133Z,310
2016-06-15T05:47:37.119Z,315
2016-06-15T05:48:37.092Z,325
2016-06-15T05:49:37.078Z,340
2016-06-15T05:50:37.066Z,385
2016-06-15T05:51:37.225Z,505
2016-06-15T05:52:37.026Z,425
2016-06-15T05:53:37.012Z,400
2016-06-15T05:54:36.985Z,485
2016-06-15T05:55:36.956Z,445
2016-06-15T05:56:36.944Z,390
2016-06-15T05:57:36.931Z,390
2016-06-15T05:58:36.934Z,410
2016-06-15T05:59:36.734Z,370
2016-06-15T06:00:36.894Z,350
2016-06-15T06:01:36.850Z,365
2016-06-15T06:02:36.838Z,360
2016-06-15T06:03:36.824Z,305
2016-06-15T06:04:36.797Z,290
2016-06-15T06:05:36.784Z,285
2016-06-15T06:06:37.833Z,270
2016-06-15T06:07:36.775Z,255
2016-06-15T06:08:36.575Z,300
2016-06-15T06:09:36.717Z,205
2016-06-15T06:10:36.706Z,190
2016-06-15T06:11:36.678Z,180
2016-06-15T06:12:36.665Z,170
2016-06-15T06:13:36.638Z,165
2016-06-15T06:14:36.624Z,160
2016-06-15T06:15:36.612Z,155
2016-06-15T06:16:36.599Z,155
2016-06-15T06:17:36.587Z,165
2016-06-15T06:18:36.558Z,185
2016-06-15T06:19:36.546Z,205
2016-06-15T06:20:36.815Z,215
2016-06-15T06:21:36.584Z,215
2016-06-15T06:22:36.493Z,210
2016-06-15T06:23:36.465Z,210
2016-06-15T06:24:36.452Z,210
2016-06-15T06:25:36.424Z,220
2016-06-15T06:26:36.427Z,230
2016-06-15T06:27:36.414Z,240
2016-06-15T06:28:36.386Z,245
2016-06-15T06:29:36.390Z,250
2016-06-15T06:30:36.345Z,265
2016-06-15T06:31:36.333Z,285
2016-06-15T06:32:36.304Z,300
2016-06-15T06:33:36.292Z,330
2016-06-15T06:34:36.280Z,355
2016-06-15T06:35:36.283Z,415
2016-06-15T06:36:37.473Z,415
2016-06-15T06:37:36.085Z,405
2016-06-15T06:38:36.214Z,400
2016-06-15T06:39:36.170Z,395
2016-06-15T06:40:36.188Z,350
2016-06-15T06:41:36.160Z,315
2016-06-15T06:42:36.132Z,305
2016-06-15T06:43:37.354Z,305
2016-06-15T06:44:36.919Z,310
2016-06-15T06:45:35.939Z,320
2016-06-15T06:46:36.081Z,320
2016-06-15T06:47:36.070Z,315
2016-06-15T06:48:36.041Z,305
2016-06-15T06:49:35.998Z,300
2016-06-15T06:50:36.001Z,300
2016-06-15T06:51:36.316Z,300
2016-06-15T06:52:35.960Z,305
2016-06-15T06:53:35.947Z,320
2016-06-15T06:54:35.919Z,335
2016-06-15T06:55:35.907Z,365
2016-06-15T06:56:35.737Z,360
2016-06-15T06:57:35.882Z,375
2016-06-15T06:58:35.868Z,390
2016-06-15T06:59:35.701Z,400
2016-06-15T07:00:35.672Z,390
2016-06-15T07:01:35.800Z,370
2016-06-15T07:02:35.788Z,355
2016-06-15T07:03:35.931Z,330
2016-06-15T07:04:35.762Z,320
2016-06-15T07:05:35.750Z,315
2016-06-15T07:06:37.143Z,315
2016-06-15T07:07:35.725Z,330
2016-06-15T07:08:35.681Z,345
2016-06-15T07:09:35.668Z,365
2016-06-15T07:10:35.655Z,380
2016-06-15T07:11:35.472Z,400
2016-06-15T07:12:35.615Z,410
2016-06-15T07:13:35.603Z,420
2016-06-15T07:14:35.589Z,430
2016-06-15T07:15:35.562Z,430
2016-06-15T07:16:35.549Z,420
2016-06-15T07:17:35.537Z,430
2016-06-15T07:18:35.587Z,415
2016-06-15T07:19:35.512Z,400
2016-06-15T07:20:35.483Z,390
2016-06-15T07:21:35.550Z,395
2016-06-15T07:22:35.286Z,395
2016-06-15T07:23:35.430Z,395
2016-06-15T07:24:35.433Z,455
2016-06-15T07:25:35.406Z,420
2016-06-15T07:26:35.392Z,415
2016-06-15T07:27:35.380Z,450
2016-06-15T07:28:35.368Z,440
2016-06-15T07:29:35.339Z,470
2016-06-15T07:30:35.327Z,515
2016-06-15T07:31:35.330Z,520
2016-06-15T07:32:35.333Z,505
2016-06-15T07:33:35.273Z,510
2016-06-15T07:34:35.276Z,605
2016-06-15T07:35:35.248Z,810
2016-06-15T07:36:36.064Z,765
2016-06-15T07:37:35.238Z,930
2016-06-15T07:38:35.195Z,735
2016-06-15T07:39:35.182Z,620
2016-06-15T07:40:35.170Z,540
2016-06-15T07:41:35.173Z,510
2016-06-15T07:42:35.128Z,510
2016-06-15T07:43:35.117Z,490
2016-06-15T07:44:35.135Z,485
2016-06-15T07:45:35.701Z,475
2016-06-15T07:46:35.079Z,465
2016-06-15T07:47:35.051Z,460
2016-06-15T07:48:35.054Z,445
2016-06-15T07:49:35.025Z,440
2016-06-15T07:50:35.044Z,470
2016-06-15T07:51:35.469Z,480
2016-06-15T07:52:35.035Z,510
2016-06-15T07:53:34.975Z,525
2016-06-15T07:54:34.962Z,490
2016-06-15T07:55:34.966Z,465
2016-06-15T07:56:34.938Z,440
2016-06-15T07:57:34.910Z,420
2016-06-15T07:58:34.881Z,420
2016-06-15T07:59:34.885Z,415
2016-06-15T08:00:34.872Z,425
2016-06-15T08:01:34.703Z,450
2016-06-15T08:02:34.831Z,465
2016-06-15T08:03:34.818Z,475
2016-06-15T08:04:34.806Z,490
2016-06-15T08:05:34.778Z,525
2016-06-15T08:06:34.641Z,570
2016-06-15T08:07:35.252Z,600
2016-06-15T08:08:34.584Z,580
2016-06-15T08:09:34.744Z,500
2016-06-15T08:10:34.574Z,630
2016-06-15T08:11:34.703Z,625
2016-06-15T08:12:34.674Z,530
2016-06-15T08:13:34.678Z,455
2016-06-15T08:14:34.696Z,410
2016-06-15T08:15:34.684Z,410
2016-06-15T08:16:34.625Z,370
2016-06-15T08:17:34.658Z,355
2016-06-15T08:18:34.630Z,315
2016-06-15T08:19:34.430Z,270
2016-06-15T08:20:34.574Z,230
2016-06-15T08:21:38.109Z,195
2016-06-15T08:22:37.517Z,190
2016-06-15T08:23:34.193Z,175
2016-06-15T08:24:34.212Z,165
2016-06-15T08:25:34.496Z,160
2016-06-15T08:26:34.499Z,165
2016-06-15T08:27:34.471Z,165
2016-06-15T08:28:34.474Z,165
2016-06-15T08:29:34.289Z,165
2016-06-15T08:30:34.370Z,165
2016-06-15T08:31:34.420Z,180
2016-06-15T08:32:34.393Z,190
2016-06-15T08:33:34.379Z,220
2016-06-15T08:34:34.352Z,1745
2016-06-15T08:35:34.339Z,1845
2016-06-15T08:36:34.061Z,1895
2016-06-15T08:37:34.173Z,1850
2016-06-15T08:38:34.285Z,1625
2016-06-15T08:39:34.133Z,1735
2016-06-15T08:40:34.276Z,1720
2016-06-15T08:41:34.092Z,1740
2016-06-15T08:42:34.095Z,1670
2016-06-15T08:43:34.223Z,1855
2016-06-15T08:44:34.241Z,1890
2016-06-15T08:45:34.214Z,1970
2016-06-15T08:46:34.200Z,2030
2016-06-15T08:47:34.189Z,2055
2016-06-15T08:48:34.035Z,2015
2016-06-15T08:49:34.038Z,1990
2016-06-15T08:50:34.167Z,1865
2016-06-15T08:51:34.340Z,1540
2016-06-15T08:52:34.063Z,1725
2016-06-15T08:53:34.159Z,825
2016-06-15T08:54:34.163Z,730
2016-06-15T08:55:34.150Z,485
2016-06-15T08:56:33.981Z,440
2016-06-15T08:57:34.125Z,390
2016-06-15T08:58:34.097Z,350
2016-06-15T08:59:34.100Z,320
2016-06-15T09:00:34.134Z,285
2016-06-15T09:01:36.622Z,265
2016-06-15T09:02:34.079Z,250
2016-06-15T09:03:34.066Z,230
2016-06-15T09:04:34.053Z,215
2016-06-15T09:05:34.041Z,210
2016-06-15T09:06:34.059Z,205
2016-06-15T09:07:33.906Z,215
2016-06-15T09:08:34.035Z,235
2016-06-15T09:09:34.006Z,255
2016-06-15T09:10:34.009Z,270
2016-06-15T09:11:33.997Z,300
2016-06-15T09:12:33.984Z,360
2016-06-15T09:13:40.355Z,500
2016-06-15T09:14:33.934Z,490
2016-06-15T09:16:07.502Z,625
2016-06-15T09:16:33.924Z,635
2016-06-15T09:17:33.943Z,670
2016-06-15T09:18:33.884Z,715
2016-06-15T09:19:33.886Z,700
2016-06-15T09:20:33.874Z,655
2016-06-15T09:21:33.878Z,600
2016-06-15T09:22:36.848Z,615
2016-06-15T09:23:33.837Z,655
2016-06-15T09:24:33.823Z,730
2016-06-15T09:25:33.796Z,670
2016-06-15T09:26:33.798Z,610
2016-06-15T09:27:33.786Z,505
2016-06-15T09:28:33.617Z,375
2016-06-15T09:29:33.787Z,295
2016-06-15T09:30:33.743Z,295
2016-06-15T09:31:33.730Z,310
2016-06-15T09:32:33.703Z,285
2016-06-15T09:33:33.721Z,215
2016-06-15T09:34:33.677Z,150
2016-06-15T09:35:33.681Z,120
2016-06-15T09:36:33.652Z,100
2016-06-15T09:37:34.561Z,95
2016-06-15T09:38:33.626Z,100
2016-06-15T09:39:33.613Z,95
2016-06-15T09:40:33.602Z,80
2016-06-15T09:41:33.605Z,80
2016-06-15T09:42:33.436Z,80
2016-06-15T09:43:33.564Z,100
2016-06-15T09:44:33.536Z,140
2016-06-15T09:45:33.555Z,200
2016-06-15T09:46:33.510Z,280
2016-06-15T09:47:33.498Z,335
2016-06-15T09:48:33.329Z,390
2016-06-15T09:49:33.317Z,485
2016-06-15T09:50:33.304Z,565
2016-06-15T09:51:33.276Z,605
2016-06-15T09:52:33.717Z,595
2016-06-15T09:53:34.579Z,560
2016-06-15T09:54:33.363Z,535
2016-06-15T09:55:33.367Z,510
2016-06-15T09:56:33.338Z,475
2016-06-15T09:57:33.169Z,395
2016-06-15T09:58:33.297Z,330
2016-06-15T09:59:33.145Z,280
2016-06-15T10:00:33.272Z,255
2016-06-15T10:01:33.244Z,230
2016-06-15T10:02:33.231Z,210
2016-06-15T10:03:33.234Z,185
2016-06-15T10:04:33.209Z,170
2016-06-15T10:05:33.252Z,155
2016-06-15T10:06:33.249Z,140
2016-06-15T10:07:33.589Z,140
2016-06-15T10:08:33.319Z,140
2016-06-15T10:09:33.319Z,145
2016-06-15T10:10:33.321Z,150
2016-06-15T10:11:33.165Z,160
2016-06-15T10:12:33.136Z,170
2016-06-15T10:13:33.295Z,175
2016-06-15T10:14:33.136Z,195
2016-06-15T10:15:33.113Z,230
2016-06-15T10:16:37.558Z,275
2016-06-15T10:17:50.732Z,320
2016-06-15T10:18:33.247Z,345
2016-06-15T10:19:33.239Z,370
2016-06-15T10:20:33.212Z,395
2016-06-15T10:21:33.186Z,405
2016-06-15T10:22:33.691Z,395
2016-06-15T10:23:33.180Z,370
2016-06-15T10:24:33.153Z,350
2016-06-15T10:25:33.126Z,330
2016-06-15T10:26:33.099Z,320
2016-06-15T10:27:33.085Z,315
2016-06-15T10:28:33.058Z,320
2016-06-15T10:29:33.046Z,345
2016-06-15T10:30:32.893Z,375
2016-06-15T10:31:33.005Z,400
2016-06-15T10:32:32.994Z,425
2016-06-15T10:33:32.981Z,440
2016-06-15T10:34:32.954Z,455
2016-06-15T10:35:36.097Z,475
2016-06-15T10:36:43.319Z,490
2016-06-15T10:37:49.792Z,530
2016-06-15T10:39:02.797Z,625
2016-06-15T10:39:48.484Z,680
2016-06-15T10:41:14.413Z,665
2016-06-15T10:42:18.041Z,585
2016-06-15T10:42:56.932Z,525
2016-06-15T10:43:32.810Z,470
2016-06-15T10:44:32.782Z,420
2016-06-15T10:45:56.550Z,385
2016-06-15T10:47:05.728Z,345
2016-06-15T10:48:33.841Z,300
2016-06-15T10:49:14.001Z,295
2016-06-15T10:50:23.254Z,315
2016-06-15T10:51:38.585Z,305
2016-06-15T10:52:51.791Z,305
2016-06-15T10:54:09.513Z,275
2016-06-15T10:55:15.409Z,240
2016-06-15T10:55:59.128Z,215
2016-06-15T10:56:55.803Z,185
2016-06-15T10:57:55.790Z,160
2016-06-15T10:58:55.762Z,140
2016-06-15T10:59:55.751Z,130
2016-06-15T11:00:55.582Z,115
2016-06-15T11:01:55.710Z,110
2016-06-15T11:02:55.697Z,105
2016-06-15T11:03:55.684Z,110
2016-06-15T11:04:55.672Z,110
2016-06-15T11:05:55.503Z,110
2016-06-15T11:06:55.648Z,115
2016-06-15T11:07:55.478Z,115
2016-06-15T11:08:55.621Z,120
2016-06-15T11:09:55.594Z,130
2016-06-15T11:10:55.565Z,140
2016-06-15T11:11:55.553Z,150
2016-06-15T11:12:55.525Z,160
2016-06-15T11:13:55.497Z,160
2016-06-15T11:14:55.499Z,170
2016-06-15T11:15:55.487Z,180
2016-06-15T11:16:55.459Z,185
2016-06-15T11:17:55.462Z,195
2016-06-15T11:18:55.419Z,210
2016-06-15T11:19:55.405Z,240
2016-06-15T11:20:55.378Z,295
2016-06-15T11:21:55.397Z,385
2016-06-15T11:22:55.664Z,415
2016-06-15T11:23:55.183Z,455
2016-06-15T11:24:55.328Z,495
2016-06-15T11:25:55.298Z,510
2016-06-15T11:26:55.287Z,520
2016-06-15T11:27:55.274Z,510
2016-06-15T11:28:55.245Z,505
2016-06-15T11:29:55.233Z,500
2016-06-15T11:30:55.221Z,480
2016-06-15T11:31:55.192Z,465
2016-06-15T11:32:55.164Z,460
2016-06-15T11:33:54.995Z,450
2016-06-15T11:34:54.983Z,445
2016-06-15T11:35:55.127Z,440
2016-06-15T11:36:55.396Z,430
2016-06-15T11:37:54.945Z,425
2016-06-15T11:38:55.088Z,420
2016-06-15T11:39:55.060Z,405
2016-06-15T11:40:55.047Z,400
2016-06-15T11:41:55.036Z,390
2016-06-15T11:42:55.023Z,390
2016-06-15T11:43:54.995Z,395
2016-06-15T11:44:54.998Z,430
2016-06-15T11:45:54.657Z,450
2016-06-15T11:46:54.786Z,465
2016-06-15T11:47:54.944Z,480
2016-06-15T11:48:54.916Z,495
2016-06-15T11:49:54.905Z,490
2016-06-15T11:50:54.875Z,450
2016-06-15T11:51:54.864Z,420
2016-06-15T11:52:54.945Z,385
2016-06-15T11:53:54.838Z,385
2016-06-15T11:54:54.826Z,325
2016-06-15T11:55:54.812Z,270
2016-06-15T11:56:54.629Z,235
2016-06-15T11:57:54.788Z,220
2016-06-15T11:58:54.760Z,200
2016-06-15T11:59:54.592Z,210
2016-06-15T12:00:54.703Z,215
2016-06-15T12:01:54.707Z,235
2016-06-15T12:02:54.695Z,235
2016-06-15T12:03:54.682Z,230
2016-06-15T12:04:54.669Z,250
2016-06-15T12:05:54.640Z,270
2016-06-15T12:06:54.628Z,285
2016-06-15T12:07:54.334Z,285
2016-06-15T12:08:54.619Z,280
2016-06-15T12:09:54.575Z,285
2016-06-15T12:10:54.562Z,265
2016-06-15T12:11:54.550Z,255
2016-06-15T12:12:54.553Z,250
2016-06-15T12:13:54.540Z,260
2016-06-15T12:14:54.497Z,215
2016-06-15T12:15:54.485Z,185
2016-06-15T12:16:54.455Z,155
2016-06-15T12:17:54.443Z,145
2016-06-15T12:18:54.447Z,150
2016-06-15T12:19:54.434Z,155
2016-06-15T12:20:54.390Z,160
2016-06-15T12:21:54.378Z,160
2016-06-15T12:22:54.520Z,150
2016-06-15T12:23:54.352Z,140
2016-06-15T12:24:54.340Z,135
2016-06-15T12:25:54.311Z,135
2016-06-15T12:26:54.299Z,135
2016-06-15T12:27:54.286Z,135
2016-06-15T12:28:54.274Z,140
2016-06-15T12:29:54.262Z,130
2016-06-15T12:30:54.077Z,125
2016-06-15T12:31:54.221Z,115
2016-06-15T12:32:54.207Z,115
2016-06-15T12:33:54.179Z,105
2016-06-15T12:34:54.168Z,95
2016-06-15T12:35:54.155Z,85
2016-06-15T12:36:54.126Z,75
2016-06-15T12:37:54.114Z,65
2016-06-15T12:38:54.086Z,60
2016-06-15T12:39:53.917Z,65
2016-06-15T12:40:54.046Z,60
2016-06-15T12:41:54.064Z,60
2016-06-15T12:42:53.879Z,55
2016-06-15T12:43:54.007Z,55
2016-06-15T12:44:53.980Z,55
2016-06-15T12:45:53.967Z,55
2016-06-15T12:46:53.955Z,60
2016-06-15T12:47:53.942Z,65
2016-06-15T12:48:53.913Z,75
2016-06-15T12:49:53.745Z,80
2016-06-15T12:50:53.888Z,90
2016-06-15T12:51:53.860Z,95
2016-06-15T12:52:53.910Z,110
2016-06-15T12:53:53.835Z,125
2016-06-15T12:54:53.651Z,140
2016-06-15T12:55:53.794Z,165
2016-06-15T12:56:53.781Z,195
2016-06-15T12:57:53.769Z,225
2016-06-15T12:58:53.742Z,265
2016-06-15T12:59:53.729Z,310
2016-06-15T13:00:53.701Z,345
2016-06-15T13:01:53.532Z,380
2016-06-15T13:02:53.535Z,415
2016-06-15T13:03:53.678Z,435
2016-06-15T13:04:53.635Z,455
2016-06-15T13:05:53.622Z,470
2016-06-15T13:06:53.453Z,485
2016-06-15T13:07:54.862Z,495
2016-06-15T13:08:53.584Z,505
2016-06-15T13:09:53.557Z,505
2016-06-15T13:10:53.762Z,510
2016-06-15T13:11:53.749Z,505
2016-06-15T13:12:53.738Z,495
2016-06-15T13:13:53.505Z,485
2016-06-15T13:14:53.916Z,475
2016-06-15T13:15:53.481Z,470
2016-06-15T13:16:53.172Z,455
2016-06-15T13:17:53.440Z,440
2016-06-15T13:18:53.849Z,430
2016-06-15T13:19:54.243Z,410
2016-06-15T13:20:53.450Z,390
2016-06-15T13:21:53.218Z,375
2016-06-15T13:22:53.721Z,350
2016-06-15T13:23:53.350Z,335
2016-06-15T13:24:53.524Z,320
2016-06-15T13:25:53.309Z,300
2016-06-15T13:26:53.328Z,290
2016-06-15T13:27:53.299Z,275
2016-06-15T13:28:53.270Z,265
2016-06-15T13:29:53.430Z,250
2016-06-15T13:30:53.449Z,245
2016-06-15T13:31:53.436Z,240
2016-06-15T13:32:52.721Z,230
2016-06-15T13:33:53.177Z,220
2016-06-15T13:34:53.587Z,205
2016-06-15T13:35:53.151Z,200
2016-06-15T13:36:53.140Z,195
2016-06-15T13:37:53.612Z,195
2016-06-15T13:38:53.099Z,190
2016-06-15T13:39:53.070Z,190
2016-06-15T13:40:53.058Z,200
2016-06-15T13:41:53.045Z,195
2016-06-15T13:42:53.033Z,190
2016-06-15T13:43:53.020Z,190
2016-06-15T13:44:53.212Z,190
2016-06-15T13:45:52.979Z,195
2016-06-15T13:46:52.951Z,200
2016-06-15T13:47:52.955Z,205
2016-06-15T13:48:52.927Z,215
2016-06-15T13:49:52.914Z,220
2016-06-15T13:50:52.870Z,225
2016-06-15T13:51:52.888Z,230
2016-06-15T13:52:53.470Z,235
2016-06-15T13:53:52.832Z,240
2016-06-15T13:54:52.679Z,255
2016-06-15T13:55:52.823Z,245
2016-06-15T13:56:52.623Z,245
2016-06-15T13:57:52.782Z,250
2016-06-15T13:58:52.754Z,250
2016-06-15T13:59:52.725Z,255
2016-06-15T14:00:52.728Z,260
2016-06-15T14:01:52.700Z,265
2016-06-15T14:02:52.689Z,275
2016-06-15T14:03:52.675Z,275